createdAt,value
2018-12-18T00:01:23.865Z,18.60
2018-12-18T00:03:57.242Z,14.33
2018-12-18T00:06:31.156Z,16.60
2018-12-18T00:09:10.943Z,17.10
2018-12-18T00:11:44.227Z,36.70
2018-12-18T00:14:16.974Z,21.47
2018-12-18T00:16:50.997Z,22.57
2018-12-18T00:19:23.688Z,23.23
2018-12-18T00:21:57.597Z,20.53
2018-12-18T00:24:30.618Z,20.23
2018-12-18T00:27:03.894Z,18.07
2018-12-18T00:29:36.690Z,18.37
2018-12-18T00:32:09.953Z,19.53
2018-12-18T00:34:42.739Z,20.37
2018-12-18T00:37:16.786Z,22.70
2018-12-18T00:39:49.757Z,14.23
2018-12-18T00:42:22.685Z,18.40
2018-12-18T00:44:56.151Z,16.57
2018-12-18T00:47:28.877Z,13.87
2018-12-18T00:50:02.590Z,21.40
2018-12-18T00:52:35.639Z,17.13
2018-12-18T00:55:12.898Z,18.33
2018-12-18T00:57:45.861Z,11.40
2018-12-18T01:00:20.700Z,22.67
2018-12-18T01:02:58.012Z,15.53
2018-12-18T01:05:30.516Z,20.47
2018-12-18T01:08:03.486Z,18.07
2018-12-18T01:10:36.481Z,19.13
2018-12-18T01:13:09.515Z,15.58
2018-12-18T01:15:42.219Z,17.13
2018-12-18T01:18:18.766Z,19.37
2018-12-18T01:20:51.687Z,20.13
2018-12-18T01:23:29.395Z,18.20
2018-12-18T01:26:02.457Z,16.27
2018-12-18T01:28:35.475Z,22.77
2018-12-18T01:31:08.469Z,17.47
2018-12-18T01:33:42.164Z,16.60
2018-12-18T01:36:15.073Z,22.83
2018-12-18T01:38:47.972Z,17.57
2018-12-18T01:41:21.303Z,16.03
2018-12-18T01:43:54.589Z,21.87
2018-12-18T01:46:28.716Z,20.10
2018-12-18T01:49:01.764Z,19.67
2018-12-18T01:51:34.614Z,19.57
2018-12-18T01:54:10.152Z,16.77
2018-12-18T01:56:43.196Z,24.33
2018-12-18T01:59:15.950Z,20.53
2018-12-18T02:01:48.755Z,26.13
2018-12-18T02:04:22.598Z,31.80
2018-12-18T02:06:56.470Z,25.17
2018-12-18T02:09:29.224Z,28.03
2018-12-18T02:12:02.398Z,22.47
2018-12-18T02:14:36.405Z,29.60
2018-12-18T02:17:10.731Z,24.43
2018-12-18T02:19:43.519Z,22.90
2018-12-18T02:22:16.310Z,22.17
2018-12-18T02:24:48.950Z,20.47
2018-12-18T02:27:22.319Z,23.00
2018-12-18T02:29:55.222Z,23.13
2018-12-18T02:32:28.485Z,24.50
2018-12-18T02:35:01.376Z,29.17
2018-12-18T02:37:34.038Z,23.00
2018-12-18T02:40:07.257Z,23.43
2018-12-18T02:42:40.011Z,23.05
2018-12-18T02:45:14.053Z,21.10
2018-12-18T02:54:47.300Z,23.77
2018-12-18T02:57:20.152Z,24.87
2018-12-18T02:59:52.837Z,21.17
2018-12-18T03:02:25.720Z,22.67
2018-12-18T03:04:58.597Z,25.00
2018-12-18T03:07:31.556Z,22.87
2018-12-18T03:10:04.362Z,19.43
2018-12-18T03:12:47.636Z,21.20
2018-12-18T03:15:20.351Z,21.30
2018-12-18T03:17:53.158Z,21.60
2018-12-18T03:20:27.369Z,23.30
2018-12-18T03:23:00.723Z,23.97
2018-12-18T03:25:35.252Z,22.07
2018-12-18T03:28:08.437Z,25.60
2018-12-18T03:30:41.421Z,22.63
2018-12-18T03:33:14.274Z,30.83
2018-12-18T03:35:48.124Z,21.10
2018-12-18T03:38:21.139Z,23.20
2018-12-18T03:40:54.782Z,25.83
2018-12-18T03:43:27.894Z,23.37
2018-12-18T03:46:01.906Z,22.20
2018-12-18T03:48:34.591Z,23.43
2018-12-18T03:51:08.067Z,23.77
2018-12-18T03:53:40.989Z,24.47
2018-12-18T03:56:14.182Z,34.13
2018-12-18T03:58:47.572Z,28.40
2018-12-18T04:01:20.347Z,26.57
2018-12-18T04:03:54.394Z,25.20
2018-12-18T04:06:27.300Z,23.40
2018-12-18T04:09:00.307Z,24.43
2018-12-18T04:11:33.047Z,22.07
2018-12-18T04:14:05.995Z,23.70
2018-12-18T04:16:40.201Z,20.73
2018-12-18T04:19:13.425Z,20.10
2018-12-18T04:21:46.329Z,21.00
2018-12-18T04:24:19.699Z,19.37
2018-12-18T04:26:52.305Z,22.03
2018-12-18T04:29:25.221Z,23.27
2018-12-18T04:31:58.014Z,18.97
2018-12-18T04:34:31.008Z,23.37
2018-12-18T04:37:03.850Z,22.30
2018-12-18T04:39:36.895Z,21.00
2018-12-18T04:42:09.751Z,20.50
2018-12-18T04:44:42.743Z,22.23
2018-12-18T04:47:15.677Z,23.17
2018-12-18T04:49:48.656Z,24.33
2018-12-18T04:52:21.845Z,23.43
2018-12-18T04:54:54.720Z,22.87
2018-12-18T04:57:27.597Z,28.90
2018-12-18T05:00:01.686Z,22.83
2018-12-18T05:02:34.494Z,22.93
2018-12-18T05:05:07.853Z,21.80
2018-12-18T05:07:40.635Z,20.77
2018-12-18T05:10:13.657Z,25.23
2018-12-18T05:12:46.427Z,24.67
2018-12-18T05:15:19.408Z,23.20
2018-12-18T05:17:52.754Z,22.53
2018-12-18T05:20:25.589Z,23.37
2018-12-18T05:22:58.405Z,22.33
2018-12-18T05:25:31.236Z,23.40
2018-12-18T05:28:03.999Z,21.23
2018-12-18T05:30:36.761Z,23.07
2018-12-18T05:33:09.638Z,23.40
2018-12-18T05:35:42.458Z,24.33
2018-12-18T05:38:15.150Z,25.70
2018-12-18T05:40:48.090Z,23.50
2018-12-18T05:43:21.670Z,24.33
2018-12-18T05:45:54.586Z,28.20
2018-12-18T05:48:27.460Z,22.60
2018-12-18T05:51:01.154Z,22.93
2018-12-18T05:53:34.106Z,22.83
2018-12-18T05:56:07.226Z,22.77
2018-12-18T05:58:40.118Z,25.60
2018-12-18T06:01:13.051Z,23.13
2018-12-18T06:03:45.921Z,22.67
2018-12-18T06:06:18.794Z,27.00
2018-12-18T06:08:51.984Z,24.17
2018-12-18T06:11:24.662Z,26.47
2018-12-18T06:13:57.369Z,26.23
2018-12-18T06:16:30.244Z,24.77
2018-12-18T06:19:03.136Z,22.87
2018-12-18T06:21:36.073Z,24.40
2018-12-18T06:24:09.290Z,28.73
2018-12-18T06:26:42.102Z,21.73
2018-12-18T06:29:14.814Z,24.70
2018-12-18T06:31:47.606Z,21.33
2018-12-18T06:34:20.425Z,21.70
2018-12-18T06:36:53.192Z,21.10
2018-12-18T06:39:25.989Z,24.40
2018-12-18T06:41:58.912Z,23.60
2018-12-18T06:44:31.830Z,24.23
2018-12-18T06:47:04.761Z,23.87
2018-12-18T06:49:37.517Z,23.50
2018-12-18T06:52:10.294Z,26.48
2018-12-18T06:54:42.930Z,24.30
2018-12-18T06:57:15.828Z,25.90
2018-12-18T06:59:48.724Z,25.43
2018-12-18T07:02:21.641Z,29.65
2018-12-18T07:04:54.517Z,28.70
2018-12-18T07:07:27.313Z,25.57
2018-12-18T07:10:00.410Z,22.60
2018-12-18T07:12:33.338Z,19.82
2018-12-18T07:15:06.779Z,24.53
2018-12-18T07:17:39.587Z,23.70
2018-12-18T07:20:13.531Z,22.13
2018-12-18T07:22:46.677Z,22.77
2018-12-18T07:25:21.595Z,27.98
2018-12-18T07:27:54.611Z,27.07
2018-12-18T07:30:27.497Z,23.57
2018-12-18T07:33:00.464Z,24.87
2018-12-18T07:35:33.148Z,23.43
2018-12-18T07:38:06.155Z,22.93
2018-12-18T07:40:38.837Z,23.57
2018-12-18T07:43:11.795Z,26.63
2018-12-18T07:45:49.331Z,22.13
2018-12-18T07:48:22.214Z,23.23
2018-12-18T07:50:55.020Z,20.43
2018-12-18T07:53:27.990Z,21.63
2018-12-18T07:56:01.359Z,23.17
2018-12-18T07:58:34.163Z,25.37
2018-12-18T08:01:06.833Z,20.77
2018-12-18T08:03:39.805Z,21.37
2018-12-18T08:06:13.306Z,21.73
2018-12-18T08:08:46.388Z,24.83
2018-12-18T08:11:19.224Z,22.07
2018-12-18T08:13:52.255Z,23.03
2018-12-18T08:16:24.994Z,24.20
2018-12-18T08:18:58.252Z,23.87
2018-12-18T08:21:31.070Z,26.53
2018-12-18T08:24:04.430Z,23.30
2018-12-18T08:26:38.475Z,25.63
2018-12-18T08:29:11.457Z,25.00
2018-12-18T08:31:44.374Z,25.70
2018-12-18T08:34:17.189Z,23.87
2018-12-18T08:36:49.959Z,25.03
2018-12-18T08:39:22.673Z,24.40
2018-12-18T08:41:55.413Z,25.73
2018-12-18T08:44:28.744Z,25.03
2018-12-18T08:47:01.670Z,23.63
2018-12-18T08:49:35.231Z,25.07
2018-12-18T08:52:07.979Z,24.70
2018-12-18T08:54:40.721Z,23.90
2018-12-18T08:57:13.982Z,26.93
2018-12-18T08:59:47.278Z,26.83
2018-12-18T09:02:19.994Z,24.73
2018-12-18T09:04:52.861Z,25.90
2018-12-18T09:07:25.713Z,24.93
2018-12-18T09:09:58.616Z,27.67
2018-12-18T09:12:31.580Z,25.83
2018-12-18T09:15:08.322Z,17.13
2018-12-18T09:17:50.412Z,29.50
2018-12-18T09:20:23.298Z,29.50
2018-12-18T09:22:56.189Z,25.27
2018-12-18T09:25:29.098Z,27.13
2018-12-18T09:28:01.999Z,27.93
2018-12-18T09:30:35.644Z,27.60
2018-12-18T09:33:09.966Z,26.93
2018-12-18T09:35:42.858Z,23.73
2018-12-18T09:38:19.917Z,25.90
2018-12-18T09:40:57.083Z,22.83
2018-12-18T09:43:35.601Z,23.17
2018-12-18T09:46:08.254Z,23.40
2018-12-18T09:48:41.166Z,22.93
2018-12-18T09:51:14.100Z,23.80
2018-12-18T09:53:46.845Z,22.60
2018-12-18T09:56:19.802Z,22.10
2018-12-18T09:58:52.481Z,22.37
2018-12-18T10:01:25.359Z,24.30
2018-12-18T10:03:58.274Z,24.00
2018-12-18T10:06:31.227Z,22.43
2018-12-18T10:09:09.628Z,25.57
2018-12-18T10:11:39.980Z,25.97
2018-12-18T10:14:12.911Z,23.83
2018-12-18T10:16:45.763Z,25.03
2018-12-18T10:19:18.641Z,25.40
2018-12-18T10:21:51.395Z,24.53
2018-12-18T10:24:24.474Z,31.07
2018-12-18T10:26:57.402Z,24.83
2018-12-18T10:29:30.168Z,23.57
2018-12-18T10:32:03.401Z,21.80
2018-12-18T10:34:36.248Z,20.40
2018-12-18T10:37:08.949Z,22.10
2018-12-18T10:39:42.274Z,23.30
2018-12-18T10:42:15.055Z,24.63
2018-12-18T10:44:47.773Z,25.77
2018-12-18T10:47:20.667Z,27.70
2018-12-18T10:49:53.450Z,28.27
2018-12-18T10:52:26.483Z,31.43
2018-12-18T10:54:59.119Z,24.00
2018-12-18T10:57:31.999Z,35.40
2018-12-18T11:00:05.031Z,23.87
2018-12-18T11:02:37.918Z,23.83
2018-12-18T11:05:10.628Z,25.03
2018-12-18T11:07:43.527Z,27.22
2018-12-18T11:10:16.580Z,25.93
2018-12-18T11:12:54.243Z,32.50
2018-12-18T11:15:28.505Z,28.13
2018-12-18T11:18:02.229Z,30.63
2018-12-18T11:20:35.562Z,32.13
2018-12-18T11:23:09.803Z,30.47
2018-12-18T11:25:43.207Z,40.77
2018-12-18T11:28:16.539Z,28.30
2018-12-18T11:30:49.817Z,25.93
2018-12-18T11:33:23.348Z,28.67
2018-12-18T11:35:56.715Z,27.43
2018-12-18T11:38:30.105Z,27.57
2018-12-18T11:41:03.487Z,26.63
2018-12-18T11:43:36.787Z,27.83
2018-12-18T11:46:10.355Z,31.23
2018-12-18T11:48:43.868Z,26.73
2018-12-18T11:51:17.551Z,26.70
2018-12-18T11:53:52.160Z,29.40
2018-12-18T11:56:52.642Z,30.00
2018-12-18T11:59:25.576Z,31.27
2018-12-18T12:01:58.527Z,45.63
2018-12-18T12:04:31.522Z,38.58
2018-12-18T12:07:05.134Z,42.50
2018-12-18T12:09:39.231Z,32.57
2018-12-18T12:12:12.588Z,32.00
2018-12-18T12:14:46.409Z,29.07
2018-12-18T12:17:20.891Z,26.50
2018-12-18T12:19:54.030Z,30.00
2018-12-18T12:22:28.178Z,26.47
2018-12-18T12:25:02.987Z,26.97
2018-12-18T12:27:40.257Z,33.13
2018-12-18T12:30:13.986Z,27.33
2018-12-18T12:32:47.367Z,30.23
2018-12-18T12:35:39.558Z,27.07
2018-12-18T12:38:25.358Z,31.37
2018-12-18T12:41:09.002Z,31.68
2018-12-18T12:43:51.426Z,27.80
2018-12-18T12:46:35.602Z,30.97
2018-12-18T12:51:58.672Z,25.95
2018-12-18T12:54:32.235Z,25.63
2018-12-18T12:57:05.323Z,25.83
2018-12-18T13:00:01.353Z,31.77
2018-12-18T13:02:40.285Z,25.90
2018-12-18T13:05:20.884Z,28.73
2018-12-18T13:07:54.465Z,24.87
2018-12-18T13:10:28.415Z,25.77
2018-12-18T13:13:02.629Z,30.50
2018-12-18T13:15:38.213Z,24.03
2018-12-18T13:18:11.247Z,24.10
2018-12-18T13:20:44.376Z,23.93
2018-12-18T13:23:18.798Z,27.90
2018-12-18T13:28:46.457Z,23.53
2018-12-18T13:31:20.711Z,24.70
2018-12-18T13:33:55.433Z,21.53
2018-12-18T13:36:30.646Z,25.02
2018-12-18T13:39:08.310Z,30.47
2018-12-18T13:41:42.081Z,27.23
2018-12-18T13:44:16.270Z,24.60
2018-12-18T13:49:54.820Z,23.27
2018-12-18T13:52:27.891Z,24.37
2018-12-18T13:55:01.456Z,23.67
2018-12-18T13:57:45.143Z,21.47
2018-12-18T14:00:18.047Z,27.43
2018-12-18T14:05:53.144Z,23.00
2018-12-18T14:08:26.258Z,28.23
2018-12-18T14:11:01.455Z,31.23
2018-12-18T14:13:34.306Z,30.37
2018-12-18T14:16:21.991Z,25.77
2018-12-18T14:22:08.539Z,28.87
2018-12-18T14:24:42.994Z,48.10
2018-12-18T14:30:19.134Z,28.23
2018-12-18T14:33:03.014Z,25.77
2018-12-18T14:35:37.823Z,24.00
2018-12-18T14:38:23.481Z,23.57
2018-12-18T14:40:58.055Z,26.40
2018-12-18T14:43:32.423Z,22.47
2018-12-18T14:46:11.602Z,26.57
2018-12-18T14:48:59.593Z,25.37
2018-12-18T14:51:33.335Z,25.23
2018-12-18T14:54:08.904Z,33.05
2018-12-18T14:56:42.475Z,22.07
2018-12-18T14:59:16.160Z,23.23
2018-12-18T15:01:49.185Z,18.30
2018-12-18T15:04:23.716Z,22.47
2018-12-18T15:07:09.053Z,24.87
2018-12-18T15:09:45.649Z,21.33
2018-12-18T15:12:18.955Z,20.67
2018-12-18T15:14:56.083Z,21.13
2018-12-18T15:17:29.578Z,24.07
2018-12-18T15:20:03.095Z,21.47
2018-12-18T15:22:38.677Z,69.17
2018-12-18T15:25:16.675Z,20.43
2018-12-18T15:27:49.146Z,16.70
2018-12-18T15:30:26.117Z,16.07
2018-12-18T15:33:03.514Z,15.63
2018-12-18T15:38:41.891Z,22.43
2018-12-18T15:41:14.878Z,17.27
2018-12-18T15:43:47.823Z,20.10
2018-12-18T15:46:26.946Z,16.40
2018-12-18T15:49:02.069Z,17.30
2018-12-18T15:51:41.129Z,27.77
2018-12-18T15:54:13.819Z,18.03
2018-12-18T15:57:03.494Z,22.40
2018-12-18T15:59:36.122Z,13.63
2018-12-18T16:02:24.310Z,16.10
2018-12-18T16:04:59.865Z,22.23
2018-12-18T16:07:33.882Z,16.80
2018-12-18T16:10:06.759Z,12.27
2018-12-18T16:12:39.673Z,13.03
2018-12-18T16:15:22.330Z,13.37
2018-12-18T16:17:57.183Z,16.87
2018-12-18T16:20:32.993Z,12.10
2018-12-18T16:23:05.935Z,16.03
2018-12-18T16:25:39.765Z,9.80
2018-12-18T16:28:13.457Z,13.10
2018-12-18T16:30:46.410Z,12.70
2018-12-18T16:33:18.954Z,15.43
2018-12-18T16:35:53.113Z,19.20
2018-12-18T16:38:26.730Z,13.70
2018-12-18T16:40:59.144Z,14.03
2018-12-18T16:43:32.234Z,11.50
2018-12-18T16:46:05.248Z,10.97
2018-12-18T16:48:38.052Z,19.43
2018-12-18T16:51:11.255Z,17.77
2018-12-18T16:53:44.776Z,16.33
2018-12-18T16:56:18.820Z,18.30
2018-12-18T16:58:54.151Z,9.83
2018-12-18T17:01:28.258Z,10.73
2018-12-18T17:04:01.259Z,13.62
2018-12-18T17:06:34.227Z,12.27
2018-12-18T17:09:09.443Z,13.03
2018-12-18T17:11:43.608Z,12.03
2018-12-18T17:14:18.335Z,13.80
2018-12-18T17:16:55.648Z,17.13
2018-12-18T17:19:28.637Z,15.87
2018-12-18T17:22:02.547Z,19.57
2018-12-18T17:24:36.084Z,9.73
2018-12-18T17:27:11.210Z,18.50
2018-12-18T17:29:44.574Z,15.67
2018-12-18T17:32:18.074Z,15.53
2018-12-18T17:34:50.992Z,18.57
2018-12-18T17:37:23.606Z,14.18
2018-12-18T17:39:58.240Z,16.00
2018-12-18T17:42:31.015Z,12.70
2018-12-18T17:45:05.139Z,12.93
2018-12-18T17:47:37.988Z,15.70
2018-12-18T17:50:12.343Z,11.90
2018-12-18T17:52:45.042Z,9.90
2018-12-18T17:55:17.858Z,15.80
2018-12-18T17:57:50.730Z,20.07
2018-12-18T18:00:24.066Z,16.75
2018-12-18T18:02:56.999Z,11.93
2018-12-18T18:05:35.836Z,14.60
2018-12-18T18:08:08.918Z,15.43
2018-12-18T18:10:41.733Z,13.43
2018-12-18T18:13:15.410Z,17.20
2018-12-18T18:18:48.373Z,12.30
2018-12-18T18:21:22.070Z,12.30
2018-12-18T18:23:56.392Z,13.87
2018-12-18T18:26:35.721Z,15.07
2018-12-18T18:29:09.314Z,11.20
2018-12-18T18:31:42.244Z,11.73
2018-12-18T18:34:15.008Z,14.20
2018-12-18T18:39:47.034Z,12.50
2018-12-18T18:42:20.185Z,14.67
2018-12-18T18:44:54.617Z,14.23
2018-12-18T18:47:27.678Z,12.63
2018-12-18T18:50:01.766Z,14.33
2018-12-18T18:52:35.279Z,19.87
2018-12-18T18:55:14.203Z,31.95
2018-12-18T18:57:48.089Z,13.90
2018-12-18T19:00:20.590Z,9.27
2018-12-18T19:02:54.463Z,12.43
2018-12-18T19:05:28.410Z,8.87
2018-12-18T19:08:02.838Z,10.73
2018-12-18T19:10:38.572Z,16.50
2018-12-18T19:13:11.025Z,11.87
2018-12-18T19:15:43.875Z,10.63
2018-12-18T19:18:16.653Z,8.53
2018-12-18T19:21:59.523Z,7.63
2018-12-18T19:24:32.373Z,16.33
2018-12-18T19:36:28.151Z,7.03
2018-12-18T19:39:01.030Z,14.73
2018-12-18T19:41:35.838Z,19.00
2018-12-18T19:44:08.585Z,18.67
2018-12-18T19:46:41.518Z,14.27
2018-12-18T19:49:15.805Z,14.93
2018-12-18T19:51:50.371Z,12.17
2018-12-18T19:54:23.282Z,13.67
2018-12-18T19:56:56.324Z,14.47
2018-12-18T19:59:29.266Z,14.30
2018-12-18T20:02:02.169Z,13.13
2018-12-18T20:04:35.307Z,15.60
2018-12-18T20:07:19.677Z,12.50
2018-12-18T20:09:52.469Z,13.17
2018-12-18T20:12:25.386Z,17.17
2018-12-18T20:14:58.255Z,10.40
2018-12-18T20:17:31.514Z,13.43
2018-12-18T20:20:04.356Z,13.20
2018-12-18T20:22:37.122Z,13.30
2018-12-18T20:25:09.832Z,13.40
2018-12-18T20:27:47.503Z,14.33
2018-12-18T20:30:24.508Z,15.17
2018-12-18T20:46:16.290Z,14.23
2018-12-18T20:48:49.019Z,12.53
2018-12-18T20:51:22.055Z,13.20
2018-12-18T20:53:57.190Z,13.77
2018-12-18T20:56:44.651Z,13.90
2018-12-18T20:59:19.800Z,13.10
2018-12-18T21:01:52.581Z,15.47
2018-12-18T21:04:25.118Z,21.40
2018-12-18T21:07:05.354Z,18.57
2018-12-18T21:09:38.322Z,18.42
2018-12-18T21:12:11.356Z,14.30
2018-12-18T21:14:44.209Z,14.20
2018-12-18T21:20:16.901Z,24.60
2018-12-18T21:22:49.480Z,12.93
2018-12-18T21:25:28.784Z,25.30
2018-12-18T21:28:01.712Z,21.03
2018-12-18T21:30:38.296Z,18.75
2018-12-18T21:33:11.275Z,33.03
2018-12-18T21:35:47.839Z,17.93
2018-12-18T21:38:20.785Z,21.40
2018-12-18T21:40:54.636Z,17.43
2018-12-18T21:43:28.971Z,16.23
2018-12-18T21:46:06.216Z,12.53
2018-12-18T21:48:39.592Z,17.43
2018-12-18T21:51:13.369Z,19.00
2018-12-18T21:53:47.154Z,19.87
2018-12-18T21:56:21.731Z,14.63
2018-12-18T21:58:54.668Z,17.83
2018-12-18T22:01:29.057Z,16.80
2018-12-18T22:04:02.023Z,18.73
2018-12-18T22:06:35.531Z,15.27
2018-12-18T22:09:09.562Z,19.53
2018-12-18T22:11:42.799Z,18.90
2018-12-18T22:14:15.497Z,19.07
2018-12-18T22:16:57.786Z,19.57
2018-12-18T22:19:31.320Z,19.77
2018-12-18T22:22:04.079Z,19.43
2018-12-18T22:24:36.781Z,17.07
2018-12-18T22:27:09.950Z,21.07
2018-12-18T22:29:42.860Z,22.27
2018-12-18T22:32:15.966Z,16.97
2018-12-18T22:34:48.773Z,17.17
2018-12-18T22:37:21.478Z,19.80
2018-12-18T22:39:54.504Z,20.20
2018-12-18T22:42:27.562Z,17.37
2018-12-18T22:45:01.182Z,22.23
2018-12-18T22:47:34.150Z,20.03
2018-12-18T22:50:07.890Z,17.53
2018-12-18T22:52:42.747Z,20.50
2018-12-18T22:55:16.665Z,25.13
2018-12-18T22:57:49.586Z,17.63
2018-12-18T23:00:26.928Z,19.30
2018-12-18T23:02:59.933Z,20.27
2018-12-18T23:05:43.647Z,19.40
2018-12-18T23:08:16.536Z,18.87
2018-12-18T23:10:49.352Z,17.70
2018-12-18T23:13:25.819Z,22.03
2018-12-18T23:15:58.539Z,17.73
2018-12-18T23:18:31.482Z,15.53
2018-12-18T23:21:04.361Z,18.00
2018-12-18T23:23:37.619Z,26.03
2018-12-18T23:26:10.979Z,17.23
2018-12-18T23:28:43.974Z,19.33
2018-12-18T23:31:16.783Z,26.47
2018-12-18T23:33:49.760Z,30.15
2018-12-18T23:36:22.717Z,25.77
2018-12-18T23:38:57.087Z,19.80
2018-12-18T23:41:30.230Z,24.13
2018-12-18T23:44:03.322Z,17.87
2018-12-18T23:46:39.010Z,19.00
2018-12-18T23:49:11.958Z,25.10
2018-12-18T23:51:45.265Z,22.63
2018-12-18T23:54:18.193Z,25.37
2018-12-18T23:56:51.090Z,29.35
2018-12-18T23:59:24.633Z,29.40
